sensor_id;sensor_type;location;lat;lon;timestamp;P1;durP1;ratioP1;P2;durP2;ratioP2
26082;SDS011;13848;49.018;12.078;2024-02-16T00:01:37;15.73;;;8.10;;
26082;SDS011;13848;49.018;12.078;2024-02-16T00:04:03;16.40;;;8.32;;
26082;SDS011;13848;49.018;12.078;2024-02-16T00:06:29;14.27;;;6.97;;
26082;SDS011;13848;49.018;12.078;2024-02-16T00:08:55;11.07;;;6.80;;
26082;SDS011;13848;49.018;12.078;2024-02-16T00:11:21;13.38;;;6.57;;
26082;SDS011;13848;49.018;12.078;2024-02-16T00:13:47;11.43;;;6.50;;
26082;SDS011;13848;49.018;12.078;2024-02-16T00:16:13;11.07;;;6.18;;
26082;SDS011;13848;49.018;12.078;2024-02-16T00:18:40;8.48;;;5.97;;
26082;SDS011;13848;49.018;12.078;2024-02-16T00:21:06;11.15;;;6.28;;
26082;SDS011;13848;49.018;12.078;2024-02-16T00:23:32;13.63;;;6.75;;
26082;SDS011;13848;49.018;12.078;2024-02-16T00:25:58;11.40;;;6.38;;
26082;SDS011;13848;49.018;12.078;2024-02-16T00:28:24;10.93;;;6.75;;
26082;SDS011;13848;49.018;12.078;2024-02-16T00:30:50;9.23;;;6.35;;
26082;SDS011;13848;49.018;12.078;2024-02-16T00:33:15;11.88;;;6.25;;
26082;SDS011;13848;49.018;12.078;2024-02-16T00:35:43;8.90;;;6.35;;
26082;SDS011;13848;49.018;12.078;2024-02-16T00:38:09;12.85;;;6.22;;
26082;SDS011;13848;49.018;12.078;2024-02-16T00:40:35;9.68;;;6.13;;
26082;SDS011;13848;49.018;12.078;2024-02-16T00:43:00;9.73;;;6.05;;
26082;SDS011;13848;49.018;12.078;2024-02-16T00:45:26;9.13;;;6.20;;
26082;SDS011;13848;49.018;12.078;2024-02-16T00:47:52;11.30;;;6.32;;
26082;SDS011;13848;49.018;12.078;2024-02-16T00:50:18;13.90;;;5.95;;
26082;SDS011;13848;49.018;12.078;2024-02-16T00:52:46;10.20;;;5.97;;
26082;SDS011;13848;49.018;12.078;2024-02-16T00:55:11;11.05;;;6.05;;
26082;SDS011;13848;49.018;12.078;2024-02-16T00:57:37;10.02;;;5.80;;
26082;SDS011;13848;49.018;12.078;2024-02-16T01:00:04;9.68;;;6.40;;
26082;SDS011;13848;49.018;12.078;2024-02-16T01:02:31;9.68;;;6.10;;
26082;SDS011;13848;49.018;12.078;2024-02-16T01:04:56;9.85;;;5.97;;
26082;SDS011;13848;49.018;12.078;2024-02-16T01:07:22;11.10;;;5.93;;
26082;SDS011;13848;49.018;12.078;2024-02-16T01:09:50;10.75;;;5.45;;
26082;SDS011;13848;49.018;12.078;2024-02-16T01:12:16;8.52;;;5.25;;
26082;SDS011;13848;49.018;12.078;2024-02-16T01:14:41;9.00;;;5.65;;
26082;SDS011;13848;49.018;12.078;2024-02-16T01:17:08;9.25;;;5.80;;
26082;SDS011;13848;49.018;12.078;2024-02-16T01:19:34;8.63;;;5.90;;
26082;SDS011;13848;49.018;12.078;2024-02-16T01:21:59;7.60;;;5.30;;
26082;SDS011;13848;49.018;12.078;2024-02-16T01:24:25;11.50;;;5.72;;
26082;SDS011;13848;49.018;12.078;2024-02-16T01:26:53;8.55;;;5.30;;
26082;SDS011;13848;49.018;12.078;2024-02-16T01:29:19;7.68;;;5.13;;
26082;SDS011;13848;49.018;12.078;2024-02-16T01:31:44;9.70;;;5.65;;
26082;SDS011;13848;49.018;12.078;2024-02-16T01:34:10;9.23;;;5.45;;
26082;SDS011;13848;49.018;12.078;2024-02-16T01:36:36;9.30;;;5.40;;
26082;SDS011;13848;49.018;12.078;2024-02-16T01:39:02;9.57;;;5.15;;
26082;SDS011;13848;49.018;12.078;2024-02-16T01:41:28;7.75;;;5.00;;
26082;SDS011;13848;49.018;12.078;2024-02-16T01:43:55;8.27;;;5.28;;
26082;SDS011;13848;49.018;12.078;2024-02-16T01:46:21;8.82;;;5.50;;
26082;SDS011;13848;49.018;12.078;2024-02-16T01:48:48;8.88;;;5.25;;
26082;SDS011;13848;49.018;12.078;2024-02-16T01:51:14;10.23;;;5.45;;
26082;SDS011;13848;49.018;12.078;2024-02-16T01:53:40;9.07;;;5.63;;
26082;SDS011;13848;49.018;12.078;2024-02-16T01:56:06;7.65;;;4.88;;
26082;SDS011;13848;49.018;12.078;2024-02-16T01:58:33;8.52;;;5.20;;
26082;SDS011;13848;49.018;12.078;2024-02-16T02:01:00;9.07;;;5.57;;
26082;SDS011;13848;49.018;12.078;2024-02-16T02:03:26;11.27;;;5.03;;
26082;SDS011;13848;49.018;12.078;2024-02-16T02:05:52;10.75;;;5.60;;
26082;SDS011;13848;49.018;12.078;2024-02-16T02:08:18;10.75;;;5.65;;
26082;SDS011;13848;49.018;12.078;2024-02-16T02:10:44;8.57;;;5.15;;
26082;SDS011;13848;49.018;12.078;2024-02-16T02:13:10;7.88;;;5.20;;
26082;SDS011;13848;49.018;12.078;2024-02-16T02:15:36;8.60;;;5.30;;
26082;SDS011;13848;49.018;12.078;2024-02-16T02:18:03;8.48;;;5.57;;
26082;SDS011;13848;49.018;12.078;2024-02-16T02:20:29;11.10;;;5.97;;
26082;SDS011;13848;49.018;12.078;2024-02-16T02:22:57;12.52;;;6.05;;
26082;SDS011;13848;49.018;12.078;2024-02-16T02:25:22;8.70;;;5.25;;
26082;SDS011;13848;49.018;12.078;2024-02-16T02:27:48;10.05;;;5.43;;
26082;SDS011;13848;49.018;12.078;2024-02-16T02:30:14;8.57;;;5.18;;
26082;SDS011;13848;49.018;12.078;2024-02-16T02:32:40;8.60;;;4.80;;
26082;SDS011;13848;49.018;12.078;2024-02-16T02:35:07;8.55;;;5.25;;
26082;SDS011;13848;49.018;12.078;2024-02-16T02:37:35;7.25;;;4.85;;
26082;SDS011;13848;49.018;12.078;2024-02-16T02:40:02;12.07;;;5.35;;
26082;SDS011;13848;49.018;12.078;2024-02-16T02:42:28;8.32;;;4.50;;
26082;SDS011;13848;49.018;12.078;2024-02-16T02:44:54;6.60;;;4.57;;
26082;SDS011;13848;49.018;12.078;2024-02-16T02:47:20;7.63;;;4.68;;
26082;SDS011;13848;49.018;12.078;2024-02-16T02:49:46;6.32;;;4.50;;
26082;SDS011;13848;49.018;12.078;2024-02-16T02:52:12;6.40;;;4.43;;
26082;SDS011;13848;49.018;12.078;2024-02-16T02:54:38;6.18;;;4.70;;
26082;SDS011;13848;49.018;12.078;2024-02-16T02:57:06;7.68;;;4.57;;
26082;SDS011;13848;49.018;12.078;2024-02-16T02:59:32;7.40;;;4.30;;
26082;SDS011;13848;49.018;12.078;2024-02-16T03:01:58;7.03;;;4.55;;
26082;SDS011;13848;49.018;12.078;2024-02-16T03:04:24;6.43;;;4.25;;
26082;SDS011;13848;49.018;12.078;2024-02-16T03:06:51;7.53;;;4.30;;
26082;SDS011;13848;49.018;12.078;2024-02-16T03:09:17;8.77;;;4.55;;
26082;SDS011;13848;49.018;12.078;2024-02-16T03:11:43;8.43;;;4.35;;
26082;SDS011;13848;49.018;12.078;2024-02-16T03:14:10;6.93;;;4.43;;
26082;SDS011;13848;49.018;12.078;2024-02-16T03:16:36;6.55;;;4.25;;
26082;SDS011;13848;49.018;12.078;2024-02-16T03:19:02;8.40;;;4.43;;
26082;SDS011;13848;49.018;12.078;2024-02-16T03:21:32;6.72;;;4.40;;
26082;SDS011;13848;49.018;12.078;2024-02-16T03:23:57;6.57;;;5.20;;
26082;SDS011;13848;49.018;12.078;2024-02-16T03:26:23;7.40;;;4.47;;
26082;SDS011;13848;49.018;12.078;2024-02-16T03:28:49;5.95;;;4.10;;
26082;SDS011;13848;49.018;12.078;2024-02-16T03:31:20;7.60;;;4.95;;
26082;SDS011;13848;49.018;12.078;2024-02-16T03:33:47;8.80;;;4.47;;
26082;SDS011;13848;49.018;12.078;2024-02-16T03:36:13;11.27;;;4.30;;
26082;SDS011;13848;49.018;12.078;2024-02-16T03:38:43;5.88;;;4.25;;
26082;SDS011;13848;49.018;12.078;2024-02-16T03:41:12;7.68;;;4.40;;
26082;SDS011;13848;49.018;12.078;2024-02-16T03:43:38;7.68;;;4.53;;
26082;SDS011;13848;49.018;12.078;2024-02-16T03:46:04;7.60;;;4.80;;
26082;SDS011;13848;49.018;12.078;2024-02-16T03:48:32;7.53;;;4.57;;
26082;SDS011;13848;49.018;12.078;2024-02-16T03:50:57;6.68;;;4.28;;
26082;SDS011;13848;49.018;12.078;2024-02-16T03:53:23;5.75;;;3.72;;
26082;SDS011;13848;49.018;12.078;2024-02-16T03:55:49;6.43;;;4.65;;
26082;SDS011;13848;49.018;12.078;2024-02-16T03:58:15;6.72;;;4.68;;
26082;SDS011;13848;49.018;12.078;2024-02-16T04:00:42;7.00;;;4.85;;
26082;SDS011;13848;49.018;12.078;2024-02-16T04:03:08;7.68;;;4.78;;
26082;SDS011;13848;49.018;12.078;2024-02-16T04:05:35;6.72;;;4.40;;
26082;SDS011;13848;49.018;12.078;2024-02-16T04:08:01;7.22;;;4.72;;
26082;SDS011;13848;49.018;12.078;2024-02-16T04:10:27;7.25;;;4.63;;
26082;SDS011;13848;49.018;12.078;2024-02-16T04:12:53;7.07;;;4.82;;
26082;SDS011;13848;49.018;12.078;2024-02-16T04:15:18;7.70;;;5.10;;
26082;SDS011;13848;49.018;12.078;2024-02-16T04:17:44;6.07;;;4.65;;
26082;SDS011;13848;49.018;12.078;2024-02-16T04:20:10;8.13;;;4.75;;
26082;SDS011;13848;49.018;12.078;2024-02-16T04:22:38;7.38;;;4.28;;
26082;SDS011;13848;49.018;12.078;2024-02-16T04:25:04;7.30;;;4.95;;
26082;SDS011;13848;49.018;12.078;2024-02-16T04:27:30;6.78;;;4.70;;
26082;SDS011;13848;49.018;12.078;2024-02-16T04:29:56;6.10;;;4.72;;
26082;SDS011;13848;49.018;12.078;2024-02-16T04:32:22;6.70;;;4.97;;
26082;SDS011;13848;49.018;12.078;2024-02-16T04:34:48;8.07;;;5.00;;
26082;SDS011;13848;49.018;12.078;2024-02-16T04:37:14;8.13;;;4.47;;
26082;SDS011;13848;49.018;12.078;2024-02-16T04:39:42;6.45;;;4.57;;
26082;SDS011;13848;49.018;12.078;2024-02-16T04:42:07;7.55;;;4.90;;
26082;SDS011;13848;49.018;12.078;2024-02-16T04:44:36;7.50;;;4.47;;
26082;SDS011;13848;49.018;12.078;2024-02-16T04:47:02;7.00;;;4.40;;
26082;SDS011;13848;49.018;12.078;2024-02-16T04:49:28;6.53;;;4.40;;
26082;SDS011;13848;49.018;12.078;2024-02-16T04:51:54;7.00;;;4.80;;
26082;SDS011;13848;49.018;12.078;2024-02-16T04:54:20;6.72;;;4.45;;
26082;SDS011;13848;49.018;12.078;2024-02-16T04:56:47;7.45;;;4.95;;
26082;SDS011;13848;49.018;12.078;2024-02-16T04:59:14;7.18;;;4.68;;
26082;SDS011;13848;49.018;12.078;2024-02-16T05:01:40;5.90;;;4.55;;
26082;SDS011;13848;49.018;12.078;2024-02-16T05:04:06;6.10;;;4.50;;
26082;SDS011;13848;49.018;12.078;2024-02-16T05:06:32;8.88;;;4.85;;
26082;SDS011;13848;49.018;12.078;2024-02-16T05:08:58;8.88;;;4.20;;
26082;SDS011;13848;49.018;12.078;2024-02-16T05:11:24;5.07;;;4.15;;
26082;SDS011;13848;49.018;12.078;2024-02-16T05:13:51;5.82;;;4.20;;
26082;SDS011;13848;49.018;12.078;2024-02-16T05:16:17;6.70;;;4.78;;
26082;SDS011;13848;49.018;12.078;2024-02-16T05:18:43;6.35;;;5.10;;
26082;SDS011;13848;49.018;12.078;2024-02-16T05:21:09;7.20;;;4.93;;
26082;SDS011;13848;49.018;12.078;2024-02-16T05:23:35;6.65;;;4.88;;
26082;SDS011;13848;49.018;12.078;2024-02-16T05:26:01;6.55;;;4.60;;
26082;SDS011;13848;49.018;12.078;2024-02-16T05:28:27;5.57;;;4.40;;
26082;SDS011;13848;49.018;12.078;2024-02-16T05:30:54;6.43;;;4.72;;
26082;SDS011;13848;49.018;12.078;2024-02-16T05:33:20;6.25;;;4.57;;
26082;SDS011;13848;49.018;12.078;2024-02-16T05:35:46;6.55;;;4.38;;
26082;SDS011;13848;49.018;12.078;2024-02-16T05:38:12;8.95;;;5.43;;
26082;SDS011;13848;49.018;12.078;2024-02-16T05:40:37;6.55;;;4.22;;
26082;SDS011;13848;49.018;12.078;2024-02-16T05:43:03;7.80;;;4.80;;
26082;SDS011;13848;49.018;12.078;2024-02-16T05:45:29;6.40;;;4.68;;
26082;SDS011;13848;49.018;12.078;2024-02-16T05:47:57;7.85;;;5.20;;
26082;SDS011;13848;49.018;12.078;2024-02-16T05:50:22;6.18;;;4.60;;
26082;SDS011;13848;49.018;12.078;2024-02-16T05:52:48;6.55;;;4.80;;
26082;SDS011;13848;49.018;12.078;2024-02-16T05:55:14;7.18;;;4.80;;
26082;SDS011;13848;49.018;12.078;2024-02-16T05:57:40;7.90;;;4.70;;
26082;SDS011;13848;49.018;12.078;2024-02-16T06:00:07;9.70;;;5.13;;
26082;SDS011;13848;49.018;12.078;2024-02-16T06:02:34;7.80;;;4.90;;
26082;SDS011;13848;49.018;12.078;2024-02-16T06:05:02;7.25;;;4.93;;
26082;SDS011;13848;49.018;12.078;2024-02-16T06:07:29;7.35;;;5.18;;
26082;SDS011;13848;49.018;12.078;2024-02-16T06:09:55;9.25;;;5.32;;
26082;SDS011;13848;49.018;12.078;2024-02-16T06:12:21;8.55;;;4.60;;
26082;SDS011;13848;49.018;12.078;2024-02-16T06:14:47;8.05;;;4.80;;
26082;SDS011;13848;49.018;12.078;2024-02-16T06:17:13;6.03;;;4.65;;
26082;SDS011;13848;49.018;12.078;2024-02-16T06:19:39;8.43;;;5.03;;
26082;SDS011;13848;49.018;12.078;2024-02-16T06:22:07;7.80;;;5.00;;
26082;SDS011;13848;49.018;12.078;2024-02-16T06:24:33;8.90;;;5.13;;
26082;SDS011;13848;49.018;12.078;2024-02-16T06:26:59;8.35;;;5.10;;
26082;SDS011;13848;49.018;12.078;2024-02-16T06:29:25;8.32;;;5.00;;
26082;SDS011;13848;49.018;12.078;2024-02-16T06:31:51;8.48;;;5.20;;
26082;SDS011;13848;49.018;12.078;2024-02-16T06:34:17;10.10;;;6.22;;
26082;SDS011;13848;49.018;12.078;2024-02-16T06:36:43;8.15;;;5.35;;
26082;SDS011;13848;49.018;12.078;2024-02-16T06:39:11;10.15;;;5.15;;
26082;SDS011;13848;49.018;12.078;2024-02-16T06:41:37;8.68;;;5.20;;
26082;SDS011;13848;49.018;12.078;2024-02-16T06:44:04;9.57;;;6.38;;
26082;SDS011;13848;49.018;12.078;2024-02-16T06:46:30;9.57;;;6.20;;
26082;SDS011;13848;49.018;12.078;2024-02-16T06:48:56;10.15;;;5.47;;
26082;SDS011;13848;49.018;12.078;2024-02-16T06:51:22;8.65;;;5.25;;
26082;SDS011;13848;49.018;12.078;2024-02-16T06:53:48;10.00;;;6.80;;
26082;SDS011;13848;49.018;12.078;2024-02-16T06:56:16;10.48;;;6.60;;
26082;SDS011;13848;49.018;12.078;2024-02-16T06:58:42;10.00;;;6.82;;
26082;SDS011;13848;49.018;12.078;2024-02-16T07:01:08;10.10;;;6.72;;
26082;SDS011;13848;49.018;12.078;2024-02-16T07:03:34;11.32;;;6.55;;
26082;SDS011;13848;49.018;12.078;2024-02-16T07:06:00;12.40;;;7.13;;
26082;SDS011;13848;49.018;12.078;2024-02-16T07:08:25;14.25;;;8.73;;
26082;SDS011;13848;49.018;12.078;2024-02-16T07:10:51;14.00;;;8.90;;
26082;SDS011;13848;49.018;12.078;2024-02-16T07:13:19;13.20;;;8.70;;
26082;SDS011;13848;49.018;12.078;2024-02-16T07:15:45;13.80;;;8.88;;
26082;SDS011;13848;49.018;12.078;2024-02-16T07:18:11;12.63;;;8.95;;
26082;SDS011;13848;49.018;12.078;2024-02-16T07:20:37;13.48;;;8.52;;
26082;SDS011;13848;49.018;12.078;2024-02-16T07:23:03;16.60;;;9.35;;
26082;SDS011;13848;49.018;12.078;2024-02-16T07:25:29;13.07;;;9.27;;
26082;SDS011;13848;49.018;12.078;2024-02-16T07:27:55;13.75;;;8.95;;
26082;SDS011;13848;49.018;12.078;2024-02-16T07:30:22;14.88;;;10.00;;
26082;SDS011;13848;49.018;12.078;2024-02-16T07:32:48;16.60;;;9.55;;
26082;SDS011;13848;49.018;12.078;2024-02-16T07:35:14;14.50;;;9.57;;
26082;SDS011;13848;49.018;12.078;2024-02-16T07:37:40;14.40;;;9.38;;
26082;SDS011;13848;49.018;12.078;2024-02-16T07:40:07;15.27;;;9.48;;
26082;SDS011;13848;49.018;12.078;2024-02-16T07:42:34;16.27;;;9.07;;
26082;SDS011;13848;49.018;12.078;2024-02-16T07:45:00;13.25;;;9.07;;
26082;SDS011;13848;49.018;12.078;2024-02-16T07:47:27;18.73;;;10.05;;
26082;SDS011;13848;49.018;12.078;2024-02-16T07:49:53;13.00;;;8.90;;
26082;SDS011;13848;49.018;12.078;2024-02-16T07:52:19;16.23;;;10.32;;
26082;SDS011;13848;49.018;12.078;2024-02-16T07:54:45;15.35;;;9.63;;
26082;SDS011;13848;49.018;12.078;2024-02-16T07:57:11;15.27;;;9.57;;
26082;SDS011;13848;49.018;12.078;2024-02-16T07:59:36;13.00;;;9.63;;
26082;SDS011;13848;49.018;12.078;2024-02-16T08:02:02;14.32;;;9.38;;
26082;SDS011;13848;49.018;12.078;2024-02-16T08:04:30;18.30;;;10.32;;
26082;SDS011;13848;49.018;12.078;2024-02-16T08:06:56;14.73;;;9.23;;
26082;SDS011;13848;49.018;12.078;2024-02-16T08:09:22;19.05;;;9.93;;
26082;SDS011;13848;49.018;12.078;2024-02-16T08:11:48;14.45;;;9.60;;
26082;SDS011;13848;49.018;12.078;2024-02-16T08:14:14;15.30;;;10.00;;
26082;SDS011;13848;49.018;12.078;2024-02-16T08:16:40;15.73;;;9.30;;
26082;SDS011;13848;49.018;12.078;2024-02-16T08:19:06;14.18;;;9.32;;
26082;SDS011;13848;49.018;12.078;2024-02-16T08:21:33;14.10;;;9.15;;
26082;SDS011;13848;49.018;12.078;2024-02-16T08:23:59;13.15;;;8.88;;
26082;SDS011;13848;49.018;12.078;2024-02-16T08:26:25;17.10;;;9.10;;
26082;SDS011;13848;49.018;12.078;2024-02-16T08:28:51;13.85;;;9.48;;
26082;SDS011;13848;49.018;12.078;2024-02-16T08:31:17;16.08;;;10.30;;
26082;SDS011;13848;49.018;12.078;2024-02-16T08:33:43;14.00;;;9.80;;
26082;SDS011;13848;49.018;12.078;2024-02-16T08:36:09;15.30;;;8.82;;
26082;SDS011;13848;49.018;12.078;2024-02-16T08:38:37;12.25;;;9.10;;
26082;SDS011;13848;49.018;12.078;2024-02-16T08:41:03;12.73;;;9.15;;
26082;SDS011;13848;49.018;12.078;2024-02-16T08:43:29;15.60;;;10.25;;
26082;SDS011;13848;49.018;12.078;2024-02-16T08:45:55;18.42;;;10.52;;
26082;SDS011;13848;49.018;12.078;2024-02-16T08:48:21;14.45;;;9.80;;
26082;SDS011;13848;49.018;12.078;2024-02-16T08:50:47;13.98;;;9.00;;
26082;SDS011;13848;49.018;12.078;2024-02-16T08:53:13;13.00;;;9.30;;
26082;SDS011;13848;49.018;12.078;2024-02-16T08:55:40;13.77;;;9.48;;
26082;SDS011;13848;49.018;12.078;2024-02-16T08:58:07;15.50;;;10.65;;
26082;SDS011;13848;49.018;12.078;2024-02-16T09:00:33;14.00;;;9.00;;
26082;SDS011;13848;49.018;12.078;2024-02-16T09:02:59;14.80;;;9.15;;
26082;SDS011;13848;49.018;12.078;2024-02-16T09:05:25;11.48;;;8.93;;
26082;SDS011;13848;49.018;12.078;2024-02-16T09:07:51;20.83;;;11.45;;
26082;SDS011;13848;49.018;12.078;2024-02-16T09:10:17;21.38;;;12.27;;
26082;SDS011;13848;49.018;12.078;2024-02-16T09:12:44;16.90;;;10.02;;
26082;SDS011;13848;49.018;12.078;2024-02-16T09:15:10;18.05;;;10.40;;
26082;SDS011;13848;49.018;12.078;2024-02-16T09:17:36;13.30;;;8.82;;
26082;SDS011;13848;49.018;12.078;2024-02-16T09:20:02;11.50;;;8.35;;
26082;SDS011;13848;49.018;12.078;2024-02-16T09:22:28;15.60;;;9.07;;
26082;SDS011;13848;49.018;12.078;2024-02-16T09:24:54;12.93;;;9.00;;
26082;SDS011;13848;49.018;12.078;2024-02-16T09:27:20;12.65;;;8.27;;
26082;SDS011;13848;49.018;12.078;2024-02-16T09:29:47;13.10;;;9.00;;
26082;SDS011;13848;49.018;12.078;2024-02-16T09:32:13;14.23;;;8.93;;
26082;SDS011;13848;49.018;12.078;2024-02-16T09:34:39;13.10;;;8.40;;
26082;SDS011;13848;49.018;12.078;2024-02-16T09:37:05;14.77;;;8.40;;
26082;SDS011;13848;49.018;12.078;2024-02-16T09:39:31;12.90;;;8.25;;
26082;SDS011;13848;49.018;12.078;2024-02-16T09:41:57;12.32;;;8.07;;
26082;SDS011;13848;49.018;12.078;2024-02-16T09:44:23;12.98;;;8.88;;
26082;SDS011;13848;49.018;12.078;2024-02-16T09:46:50;12.27;;;8.35;;
26082;SDS011;13848;49.018;12.078;2024-02-16T09:49:19;15.52;;;8.20;;
26082;SDS011;13848;49.018;12.078;2024-02-16T09:51:45;20.13;;;10.13;;
26082;SDS011;13848;49.018;12.078;2024-02-16T09:54:11;13.25;;;8.23;;
26082;SDS011;13848;49.018;12.078;2024-02-16T09:56:37;12.23;;;8.07;;
26082;SDS011;13848;49.018;12.078;2024-02-16T09:59:03;11.25;;;7.75;;
26082;SDS011;13848;49.018;12.078;2024-02-16T10:01:29;13.07;;;7.97;;
26082;SDS011;13848;49.018;12.078;2024-02-16T10:03:59;11.98;;;7.80;;
26082;SDS011;13848;49.018;12.078;2024-02-16T10:06:30;10.68;;;8.10;;
26082;SDS011;13848;49.018;12.078;2024-02-16T10:08:56;11.48;;;7.32;;
26082;SDS011;13848;49.018;12.078;2024-02-16T10:11:24;10.38;;;7.68;;
26082;SDS011;13848;49.018;12.078;2024-02-16T10:13:55;11.35;;;7.65;;
26082;SDS011;13848;49.018;12.078;2024-02-16T10:16:21;11.77;;;7.78;;
26082;SDS011;13848;49.018;12.078;2024-02-16T10:18:48;15.05;;;9.43;;
26082;SDS011;13848;49.018;12.078;2024-02-16T10:21:23;10.95;;;7.82;;
26082;SDS011;13848;49.018;12.078;2024-02-16T10:23:55;10.52;;;8.60;;
26082;SDS011;13848;49.018;12.078;2024-02-16T10:26:22;12.35;;;8.40;;
26082;SDS011;13848;49.018;12.078;2024-02-16T10:28:48;11.70;;;7.97;;
26082;SDS011;13848;49.018;12.078;2024-02-16T10:31:15;11.48;;;7.68;;
26082;SDS011;13848;49.018;12.078;2024-02-16T10:33:42;11.65;;;7.90;;
26082;SDS011;13848;49.018;12.078;2024-02-16T10:36:08;13.07;;;7.95;;
26082;SDS011;13848;49.018;12.078;2024-02-16T10:38:37;10.82;;;7.57;;
26082;SDS011;13848;49.018;12.078;2024-02-16T10:41:05;10.30;;;7.40;;
26082;SDS011;13848;49.018;12.078;2024-02-16T10:43:32;10.88;;;7.50;;
26082;SDS011;13848;49.018;12.078;2024-02-16T10:45:59;11.55;;;7.13;;
26082;SDS011;13848;49.018;12.078;2024-02-16T10:48:25;10.75;;;7.80;;
26082;SDS011;13848;49.018;12.078;2024-02-16T10:50:51;15.43;;;7.82;;
26082;SDS011;13848;49.018;12.078;2024-02-16T10:53:19;10.32;;;6.72;;
26082;SDS011;13848;49.018;12.078;2024-02-16T10:55:50;9.90;;;6.88;;
26082;SDS011;13848;49.018;12.078;2024-02-16T10:58:16;10.55;;;6.75;;
26082;SDS011;13848;49.018;12.078;2024-02-16T11:00:49;8.52;;;6.90;;
26082;SDS011;13848;49.018;12.078;2024-02-16T11:03:17;11.32;;;6.75;;
26082;SDS011;13848;49.018;12.078;2024-02-16T11:05:46;12.15;;;7.15;;
26082;SDS011;13848;49.018;12.078;2024-02-16T11:08:13;9.20;;;6.70;;
26082;SDS011;13848;49.018;12.078;2024-02-16T11:10:40;9.38;;;6.75;;
26082;SDS011;13848;49.018;12.078;2024-02-16T11:13:08;7.97;;;6.45;;
26082;SDS011;13848;49.018;12.078;2024-02-16T11:15:34;9.15;;;6.22;;
26082;SDS011;13848;49.018;12.078;2024-02-16T11:18:03;10.02;;;6.70;;
26082;SDS011;13848;49.018;12.078;2024-02-16T11:20:36;9.68;;;5.65;;
26082;SDS011;13848;49.018;12.078;2024-02-16T11:23:05;8.75;;;6.10;;
26082;SDS011;13848;49.018;12.078;2024-02-16T11:25:34;7.95;;;5.63;;
26082;SDS011;13848;49.018;12.078;2024-02-16T11:28:01;9.07;;;5.57;;
26082;SDS011;13848;49.018;12.078;2024-02-16T11:30:29;8.70;;;6.18;;
26082;SDS011;13848;49.018;12.078;2024-02-16T11:32:58;8.75;;;5.80;;
26082;SDS011;13848;49.018;12.078;2024-02-16T11:35:24;9.18;;;5.70;;
26082;SDS011;13848;49.018;12.078;2024-02-16T11:37:50;8.63;;;6.57;;
26082;SDS011;13848;49.018;12.078;2024-02-16T11:40:28;10.52;;;6.20;;
26082;SDS011;13848;49.018;12.078;2024-02-16T11:42:57;11.45;;;6.43;;
26082;SDS011;13848;49.018;12.078;2024-02-16T11:45:24;12.50;;;6.45;;
26082;SDS011;13848;49.018;12.078;2024-02-16T11:47:51;9.70;;;5.97;;
26082;SDS011;13848;49.018;12.078;2024-02-16T11:50:27;12.85;;;6.20;;
26082;SDS011;13848;49.018;12.078;2024-02-16T11:52:53;9.57;;;6.10;;
26082;SDS011;13848;49.018;12.078;2024-02-16T11:55:20;6.90;;;5.80;;
26082;SDS011;13848;49.018;12.078;2024-02-16T11:57:46;6.72;;;5.57;;
26082;SDS011;13848;49.018;12.078;2024-02-16T12:00:13;9.25;;;6.10;;
26082;SDS011;13848;49.018;12.078;2024-02-16T12:02:39;9.15;;;6.18;;
26082;SDS011;13848;49.018;12.078;2024-02-16T12:05:07;8.40;;;6.07;;
26082;SDS011;13848;49.018;12.078;2024-02-16T12:07:33;10.25;;;6.18;;
26082;SDS011;13848;49.018;12.078;2024-02-16T12:10:02;8.90;;;6.47;;
26082;SDS011;13848;49.018;12.078;2024-02-16T12:12:29;10.00;;;6.30;;
26082;SDS011;13848;49.018;12.078;2024-02-16T12:14:57;10.90;;;5.95;;
26082;SDS011;13848;49.018;12.078;2024-02-16T12:17:24;9.98;;;7.32;;
26082;SDS011;13848;49.018;12.078;2024-02-16T12:19:50;7.38;;;6.07;;
26082;SDS011;13848;49.018;12.078;2024-02-16T12:22:18;9.02;;;6.53;;
26082;SDS011;13848;49.018;12.078;2024-02-16T12:24:44;8.88;;;6.25;;
26082;SDS011;13848;49.018;12.078;2024-02-16T12:27:10;9.05;;;6.05;;
26082;SDS011;13848;49.018;12.078;2024-02-16T12:29:36;11.02;;;6.03;;
26082;SDS011;13848;49.018;12.078;2024-02-16T12:32:03;7.45;;;5.68;;
26082;SDS011;13848;49.018;12.078;2024-02-16T12:34:30;10.48;;;5.97;;
26082;SDS011;13848;49.018;12.078;2024-02-16T12:36:56;8.27;;;5.95;;
26082;SDS011;13848;49.018;12.078;2024-02-16T12:39:23;10.30;;;6.78;;
26082;SDS011;13848;49.018;12.078;2024-02-16T12:41:49;8.00;;;6.20;;
26082;SDS011;13848;49.018;12.078;2024-02-16T12:44:15;10.70;;;7.78;;
26082;SDS011;13848;49.018;12.078;2024-02-16T12:46:41;8.35;;;6.50;;
26082;SDS011;13848;49.018;12.078;2024-02-16T12:49:07;6.75;;;5.75;;
26082;SDS011;13848;49.018;12.078;2024-02-16T12:51:33;9.52;;;6.00;;
26082;SDS011;13848;49.018;12.078;2024-02-16T12:53:59;9.75;;;6.10;;
26082;SDS011;13848;49.018;12.078;2024-02-16T12:56:27;11.75;;;5.65;;
26082;SDS011;13848;49.018;12.078;2024-02-16T12:58:53;10.73;;;6.63;;
26082;SDS011;13848;49.018;12.078;2024-02-16T13:01:19;12.05;;;6.03;;
26082;SDS011;13848;49.018;12.078;2024-02-16T13:03:47;8.75;;;6.25;;
26082;SDS011;13848;49.018;12.078;2024-02-16T13:06:13;6.78;;;5.68;;
26082;SDS011;13848;49.018;12.078;2024-02-16T13:08:39;7.57;;;5.80;;
26082;SDS011;13848;49.018;12.078;2024-02-16T13:11:05;8.52;;;6.15;;
26082;SDS011;13848;49.018;12.078;2024-02-16T13:13:32;6.97;;;5.53;;
26082;SDS011;13848;49.018;12.078;2024-02-16T13:15:58;8.68;;;5.65;;
26082;SDS011;13848;49.018;12.078;2024-02-16T13:18:24;9.02;;;6.15;;
26082;SDS011;13848;49.018;12.078;2024-02-16T13:20:50;8.02;;;5.95;;
26082;SDS011;13848;49.018;12.078;2024-02-16T13:23:16;8.13;;;5.80;;
26082;SDS011;13848;49.018;12.078;2024-02-16T13:25:42;9.55;;;6.25;;
26082;SDS011;13848;49.018;12.078;2024-02-16T13:28:08;8.98;;;6.25;;
26082;SDS011;13848;49.018;12.078;2024-02-16T13:30:35;10.70;;;7.68;;
26082;SDS011;13848;49.018;12.078;2024-02-16T13:33:01;9.25;;;6.35;;
26082;SDS011;13848;49.018;12.078;2024-02-16T13:35:27;8.77;;;6.63;;
26082;SDS011;13848;49.018;12.078;2024-02-16T13:37:53;8.90;;;6.43;;
26082;SDS011;13848;49.018;12.078;2024-02-16T13:40:19;9.32;;;6.30;;
26082;SDS011;13848;49.018;12.078;2024-02-16T13:42:45;8.65;;;6.03;;
26082;SDS011;13848;49.018;12.078;2024-02-16T13:45:11;12.20;;;6.28;;
26082;SDS011;13848;49.018;12.078;2024-02-16T13:47:38;10.18;;;5.75;;
26082;SDS011;13848;49.018;12.078;2024-02-16T13:50:05;9.38;;;6.00;;
26082;SDS011;13848;49.018;12.078;2024-02-16T13:52:31;7.75;;;5.47;;
26082;SDS011;13848;49.018;12.078;2024-02-16T13:54:57;8.50;;;5.35;;
26082;SDS011;13848;49.018;12.078;2024-02-16T13:57:23;9.40;;;5.40;;
26082;SDS011;13848;49.018;12.078;2024-02-16T13:59:49;8.27;;;5.32;;
26082;SDS011;13848;49.018;12.078;2024-02-16T14:02:15;7.60;;;5.05;;
26082;SDS011;13848;49.018;12.078;2024-02-16T14:04:42;8.35;;;5.50;;
26082;SDS011;13848;49.018;12.078;2024-02-16T14:07:08;12.50;;;5.97;;
26082;SDS011;13848;49.018;12.078;2024-02-16T14:09:34;11.27;;;5.82;;
26082;SDS011;13848;49.018;12.078;2024-02-16T14:12:00;9.15;;;5.68;;
26082;SDS011;13848;49.018;12.078;2024-02-16T14:14:26;8.30;;;5.78;;
26082;SDS011;13848;49.018;12.078;2024-02-16T14:16:53;9.52;;;5.70;;
26082;SDS011;13848;49.018;12.078;2024-02-16T14:19:19;9.23;;;6.35;;
26082;SDS011;13848;49.018;12.078;2024-02-16T14:21:46;8.65;;;5.70;;
26082;SDS011;13848;49.018;12.078;2024-02-16T14:24:12;7.97;;;5.60;;